sensor_id;sensor_type;location;lat;lon;timestamp;pressure;altitude;pressure_sealevel;temperature;humidity
13476;BME280;6810;63.824;20.288;2023-01-26T00:02:16;100999.00;;;3.78;100.00
13476;BME280;6810;63.824;20.288;2023-01-26T00:05:03;101009.59;;;3.76;100.00
13476;BME280;6810;63.824;20.288;2023-01-26T00:07:50;101009.63;;;3.75;100.00
13476;BME280;6810;63.824;20.288;2023-01-26T00:10:38;101017.53;;;3.75;100.00
13476;BME280;6810;63.824;20.288;2023-01-26T00:13:26;101032.59;;;3.71;100.00
13476;BME280;6810;63.824;20.288;2023-01-26T00:16:14;101038.75;;;3.70;100.00
13476;BME280;6810;63.824;20.288;2023-01-26T00:19:01;101034.53;;;3.63;100.00
13476;BME280;6810;63.824;20.288;2023-01-26T00:21:47;101046.75;;;3.66;100.00
13476;BME280;6810;63.824;20.288;2023-01-26T00:24:34;101027.75;;;3.54;100.00
13476;BME280;6810;63.824;20.288;2023-01-26T00:27:21;101061.78;;;3.64;100.00
13476;BME280;6810;63.824;20.288;2023-01-26T00:30:10;101013.47;;;3.28;100.00
13476;BME280;6810;63.824;20.288;2023-01-26T00:32:57;101081.22;;;3.58;100.00
13476;BME280;6810;63.824;20.288;2023-01-26T00:35:52;101071.66;;;3.54;100.00
13476;BME280;6810;63.824;20.288;2023-01-26T00:38:40;101092.72;;;3.55;100.00
13476;BME280;6810;63.824;20.288;2023-01-26T00:41:27;101102.41;;;3.53;100.00
13476;BME280;6810;63.824;20.288;2023-01-26T00:44:14;101114.75;;;3.51;100.00
13476;BME280;6810;63.824;20.288;2023-01-26T00:47:01;101129.75;;;3.49;100.00
13476;BME280;6810;63.824;20.288;2023-01-26T00:49:48;101145.63;;;3.46;100.00
13476;BME280;6810;63.824;20.288;2023-01-26T00:52:36;101151.78;;;3.45;100.00
13476;BME280;6810;63.824;20.288;2023-01-26T00:55:24;101153.56;;;3.45;100.00
13476;BME280;6810;63.824;20.288;2023-01-26T00:58:11;101164.13;;;3.43;100.00
13476;BME280;6810;63.824;20.288;2023-01-26T01:00:58;101120.00;;;3.13;100.00
13476;BME280;6810;63.824;20.288;2023-01-26T01:03:45;101153.88;;;3.31;100.00
13476;BME280;6810;63.824;20.288;2023-01-26T01:06:32;101165.97;;;3.40;100.00
13476;BME280;6810;63.824;20.288;2023-01-26T01:09:19;101168.63;;;3.38;100.00
13476;BME280;6810;63.824;20.288;2023-01-26T01:12:06;101170.41;;;3.36;100.00
13476;BME280;6810;63.824;20.288;2023-01-26T01:14:53;101172.25;;;3.34;100.00
13476;BME280;6810;63.824;20.288;2023-01-26T01:17:40;101176.66;;;3.32;100.00
13476;BME280;6810;63.824;20.288;2023-01-26T01:20:28;101184.59;;;3.31;100.00
13476;BME280;6810;63.824;20.288;2023-01-26T01:23:15;101186.38;;;3.29;100.00
13476;BME280;6810;63.824;20.288;2023-01-26T01:26:03;101190.84;;;3.27;100.00
13476;BME280;6810;63.824;20.288;2023-01-26T01:28:53;101195.28;;;3.25;100.00
13476;BME280;6810;63.824;20.288;2023-01-26T01:31:41;101202.31;;;3.23;100.00
13476;BME280;6810;63.824;20.288;2023-01-26T01:34:28;101200.72;;;3.16;100.00
13476;BME280;6810;63.824;20.288;2023-01-26T01:37:16;101213.00;;;3.17;100.00
13476;BME280;6810;63.824;20.288;2023-01-26T01:40:04;101215.75;;;3.11;100.00
13476;BME280;6810;63.824;20.288;2023-01-26T01:42:51;101223.69;;;3.09;100.00
13476;BME280;6810;63.824;20.288;2023-01-26T01:45:43;101230.75;;;3.06;100.00
13476;BME280;6810;63.824;20.288;2023-01-26T01:48:49;101230.84;;;3.01;100.00
13476;BME280;6810;63.824;20.288;2023-01-26T01:51:44;101223.91;;;2.97;100.00
13476;BME280;6810;63.824;20.288;2023-01-26T01:54:43;101230.09;;;2.96;100.00
13476;BME280;6810;63.824;20.288;2023-01-26T01:57:47;101229.28;;;2.93;100.00
13476;BME280;6810;63.824;20.288;2023-01-26T02:00:37;101231.06;;;2.91;100.00
13476;BME280;6810;63.824;20.288;2023-01-26T02:03:24;101232.88;;;2.87;100.00
13476;BME280;6810;63.824;20.288;2023-01-26T02:06:15;101209.59;;;2.66;100.00
13476;BME280;6810;63.824;20.288;2023-01-26T02:09:05;101238.28;;;2.80;100.00
13476;BME280;6810;63.824;20.288;2023-01-26T02:11:53;101246.22;;;2.77;100.00
13476;BME280;6810;63.824;20.288;2023-01-26T02:14:40;101234.91;;;2.73;100.00
13476;BME280;6810;63.824;20.288;2023-01-26T02:17:50;101244.63;;;2.70;100.00
13476;BME280;6810;63.824;20.288;2023-01-26T02:20:47;101250.81;;;2.67;100.00
13476;BME280;6810;63.824;20.288;2023-01-26T02:23:47;101253.53;;;2.63;100.00
13476;BME280;6810;63.824;20.288;2023-01-26T02:26:37;101263.22;;;2.61;100.00
13476;BME280;6810;63.824;20.288;2023-01-26T02:29:24;101256.25;;;2.55;100.00
13476;BME280;6810;63.824;20.288;2023-01-26T02:32:11;101265.06;;;2.54;100.00
13476;BME280;6810;63.824;20.288;2023-01-26T02:34:58;101273.00;;;2.51;100.00
13476;BME280;6810;63.824;20.288;2023-01-26T02:37:45;101263.44;;;2.47;100.00
13476;BME280;6810;63.824;20.288;2023-01-26T02:43:32;101272.31;;;2.40;100.00
13476;BME280;6810;63.824;20.288;2023-01-26T02:46:19;101276.78;;;2.37;100.00
13476;BME280;6810;63.824;20.288;2023-01-26T02:49:06;101276.84;;;2.32;100.00
13476;BME280;6810;63.824;20.288;2023-01-26T02:51:52;101277.72;;;2.31;100.00
13476;BME280;6810;63.824;20.288;2023-01-26T02:54:39;101280.41;;;2.28;100.00
13476;BME280;6810;63.824;20.288;2023-01-26T02:57:24;101284.84;;;2.26;100.00
13476;BME280;6810;63.824;20.288;2023-01-26T03:00:21;101289.25;;;2.23;100.00
13476;BME280;6810;63.824;20.288;2023-01-26T03:03:13;101299.81;;;2.21;100.00
13476;BME280;6810;63.824;20.288;2023-01-26T03:06:00;101289.34;;;2.17;100.00
13476;BME280;6810;63.824;20.288;2023-01-26T03:08:47;101302.50;;;2.17;100.00
13476;BME280;6810;63.824;20.288;2023-01-26T03:11:34;101304.31;;;2.13;100.00
13476;BME280;6810;63.824;20.288;2023-01-26T03:14:22;101306.13;;;2.08;100.00
13476;BME280;6810;63.824;20.288;2023-01-26T03:17:09;101316.63;;;2.10;100.00
13476;BME280;6810;63.824;20.288;2023-01-26T03:19:56;101260.16;;;1.77;100.00
13476;BME280;6810;63.824;20.288;2023-01-26T03:22:41;101314.06;;;2.04;100.00
13476;BME280;6810;63.824;20.288;2023-01-26T03:25:42;101318.53;;;2.00;100.00
13476;BME280;6810;63.824;20.288;2023-01-26T03:28:31;101322.06;;;1.96;100.00
13476;BME280;6810;63.824;20.288;2023-01-26T03:31:18;101310.91;;;1.79;100.00
13476;BME280;6810;63.824;20.288;2023-01-26T03:34:05;101335.28;;;1.92;100.00
13476;BME280;6810;63.824;20.288;2023-01-26T03:36:52;101337.94;;;1.89;100.00
13476;BME280;6810;63.824;20.288;2023-01-26T03:39:45;101329.31;;;1.79;100.00
13476;BME280;6810;63.824;20.288;2023-01-26T03:42:33;101344.19;;;1.82;100.00
13476;BME280;6810;63.824;20.288;2023-01-26T03:45:20;101311.19;;;1.58;100.00
13476;BME280;6810;63.824;20.288;2023-01-26T03:48:10;101341.69;;;1.71;100.00
13476;BME280;6810;63.824;20.288;2023-01-26T03:50:56;101346.03;;;1.73;100.00
13476;BME280;6810;63.824;20.288;2023-01-26T03:53:42;101333.94;;;1.60;100.00
13476;BME280;6810;63.824;20.288;2023-01-26T03:56:29;101338.22;;;1.67;100.00
13476;BME280;6810;63.824;20.288;2023-01-26T03:59:19;101351.38;;;1.66;100.00
13476;BME280;6810;63.824;20.288;2023-01-26T04:02:11;101347.03;;;1.63;100.00
13476;BME280;6810;63.824;20.288;2023-01-26T04:04:57;101367.19;;;1.61;100.00
13476;BME280;6810;63.824;20.288;2023-01-26T04:07:47;101368.13;;;1.56;100.00
13476;BME280;6810;63.824;20.288;2023-01-26T04:10:32;101382.13;;;1.56;100.00
13476;BME280;6810;63.824;20.288;2023-01-26T04:13:21;101370.81;;;1.50;100.00
13476;BME280;6810;63.824;20.288;2023-01-26T04:16:11;101383.03;;;1.54;100.00
13476;BME280;6810;63.824;20.288;2023-01-26T04:18:57;101384.81;;;1.50;100.00
13476;BME280;6810;63.824;20.288;2023-01-26T04:21:42;101393.63;;;1.48;100.00
13476;BME280;6810;63.824;20.288;2023-01-26T04:24:32;101401.50;;;1.46;100.00
13476;BME280;6810;63.824;20.288;2023-01-26T04:27:18;101388.47;;;1.37;100.00
13476;BME280;6810;63.824;20.288;2023-01-26T04:30:07;101402.41;;;1.42;100.00
13476;BME280;6810;63.824;20.288;2023-01-26T04:32:54;101412.06;;;1.42;100.00
13476;BME280;6810;63.824;20.288;2023-01-26T04:35:41;101409.47;;;1.40;100.00
13476;BME280;6810;63.824;20.288;2023-01-26T04:38:28;101419.97;;;1.39;100.00
13476;BME280;6810;63.824;20.288;2023-01-26T04:41:18;101416.56;;;1.28;100.00
13476;BME280;6810;63.824;20.288;2023-01-26T04:44:10;101436.63;;;1.35;100.00
13476;BME280;6810;63.824;20.288;2023-01-26T04:46:57;101428.75;;;1.33;100.00
13476;BME280;6810;63.824;20.288;2023-01-26T04:49:44;101439.28;;;1.32;100.00
13476;BME280;6810;63.824;20.288;2023-01-26T04:52:31;101438.44;;;1.30;100.00
13476;BME280;6810;63.824;20.288;2023-01-26T08:56:06;101777.31;;;0.65;100.00
13476;BME280;6810;63.824;20.288;2023-01-26T08:58:35;101779.94;;;0.64;100.00
13476;BME280;6810;63.824;20.288;2023-01-26T09:01:04;101784.31;;;0.62;100.00
13476;BME280;6810;63.824;20.288;2023-01-26T09:03:31;101792.16;;;0.60;100.00
13476;BME280;6810;63.824;20.288;2023-01-26T09:05:59;101788.66;;;0.55;100.00
13476;BME280;6810;63.824;20.288;2023-01-26T09:08:27;101803.56;;;0.61;100.00
13476;BME280;6810;63.824;20.288;2023-01-26T09:10:54;101817.50;;;0.63;100.00
13476;BME280;6810;63.824;20.288;2023-01-26T09:13:21;101813.16;;;0.62;100.00
13476;BME280;6810;63.824;20.288;2023-01-26T09:15:48;101814.94;;;0.64;100.00
13476;BME280;6810;63.824;20.288;2023-01-26T09:18:15;101815.78;;;0.65;100.00
13476;BME280;6810;63.824;20.288;2023-01-26T09:20:44;101821.91;;;0.64;100.00
13476;BME280;6810;63.824;20.288;2023-01-26T09:23:11;101822.75;;;0.63;100.00
13476;BME280;6810;63.824;20.288;2023-01-26T09:25:38;101831.50;;;0.65;100.00
13476;BME280;6810;63.824;20.288;2023-01-26T09:28:06;101822.75;;;0.61;100.00
13476;BME280;6810;63.824;20.288;2023-01-26T09:30:33;101825.41;;;0.64;100.00
13476;BME280;6810;63.824;20.288;2023-01-26T09:33:03;101829.78;;;0.65;100.00
13476;BME280;6810;63.824;20.288;2023-01-26T09:35:30;101759.84;;;0.24;100.00
13476;BME280;6810;63.824;20.288;2023-01-26T09:37:57;101826.28;;;0.65;100.00
13476;BME280;6810;63.824;20.288;2023-01-26T09:40:50;101828.91;;;0.57;100.00
13476;BME280;6810;63.824;20.288;2023-01-26T09:51:35;101843.78;;;0.66;100.00
13476;BME280;6810;63.824;20.288;2023-01-26T09:54:14;101854.28;;;0.66;100.00
13476;BME280;6810;63.824;20.288;2023-01-26T09:56:46;101853.38;;;0.64;100.00
13476;BME280;6810;63.824;20.288;2023-01-26T09:59:38;101856.91;;;0.66;100.00
13476;BME280;6810;63.824;20.288;2023-01-26T10:05:01;101863.00;;;0.66;100.00
13476;BME280;6810;63.824;20.288;2023-01-26T10:07:30;101862.13;;;0.67;100.00
13476;BME280;6810;63.824;20.288;2023-01-26T10:09:58;101856.00;;;0.67;100.00
13476;BME280;6810;63.824;20.288;2023-01-26T10:12:30;101862.13;;;0.67;100.00
13476;BME280;6810;63.824;20.288;2023-01-26T10:15:34;101849.00;;;0.58;100.00
13476;BME280;6810;63.824;20.288;2023-01-26T10:18:32;101867.38;;;0.67;100.00
13476;BME280;6810;63.824;20.288;2023-01-26T10:21:24;101869.13;;;0.68;100.00
13476;BME280;6810;63.824;20.288;2023-01-26T10:24:21;101877.00;;;0.67;100.00
13476;BME280;6810;63.824;20.288;2023-01-26T10:27:11;101833.25;;;0.43;100.00
13476;BME280;6810;63.824;20.288;2023-01-26T10:30:01;101860.38;;;0.68;100.00
13476;BME280;6810;63.824;20.288;2023-01-26T10:32:51;101869.13;;;0.62;100.00
13476;BME280;6810;63.824;20.288;2023-01-26T10:35:38;101870.88;;;0.62;100.00
13476;BME280;6810;63.824;20.288;2023-01-26T10:38:46;101888.38;;;0.70;100.00
13476;BME280;6810;63.824;20.288;2023-01-26T10:41:33;101892.72;;;0.71;100.00
13476;BME280;6810;63.824;20.288;2023-01-26T10:44:24;101890.13;;;0.73;100.00
13476;BME280;6810;63.824;20.288;2023-01-26T10:47:17;101877.84;;;0.63;100.00
13476;BME280;6810;63.824;20.288;2023-01-26T10:50:23;101834.13;;;0.38;100.00
13476;BME280;6810;63.824;20.288;2023-01-26T10:53:22;101900.59;;;0.76;100.00
13476;BME280;6810;63.824;20.288;2023-01-26T10:56:13;101897.09;;;0.77;100.00
13476;BME280;6810;63.824;20.288;2023-01-26T10:59:01;101903.22;;;0.79;100.00
13476;BME280;6810;63.824;20.288;2023-01-26T11:01:52;101897.97;;;0.79;100.00
13476;BME280;6810;63.824;20.288;2023-01-26T11:04:40;101868.25;;;0.65;100.00
13476;BME280;6810;63.824;20.288;2023-01-26T11:07:34;101901.50;;;0.81;100.00
13476;BME280;6810;63.824;20.288;2023-01-26T11:13:20;101910.22;;;0.83;100.00
13476;BME280;6810;63.824;20.288;2023-01-26T11:19:12;101916.34;;;0.85;100.00
13476;BME280;6810;63.824;20.288;2023-01-26T11:22:04;101911.97;;;0.85;100.00
13476;BME280;6810;63.824;20.288;2023-01-26T11:25:23;101918.97;;;0.86;100.00
13476;BME280;6810;63.824;20.288;2023-01-26T11:37:44;101936.47;;;0.90;100.00
13476;BME280;6810;63.824;20.288;2023-01-26T11:43:50;101928.59;;;0.92;100.00
13476;BME280;6810;63.824;20.288;2023-01-26T11:56:34;101931.22;;;0.93;100.00
13476;BME280;6810;63.824;20.288;2023-01-26T11:59:31;101939.09;;;0.95;100.00
13476;BME280;6810;63.824;20.288;2023-01-26T12:02:32;101939.09;;;0.95;100.00
13476;BME280;6810;63.824;20.288;2023-01-26T12:05:25;101945.22;;;0.95;100.00
13476;BME280;6810;63.824;20.288;2023-01-26T12:08:22;101950.47;;;0.97;100.00
13476;BME280;6810;63.824;20.288;2023-01-26T12:17:26;101955.72;;;1.00;100.00
13476;BME280;6810;63.824;20.288;2023-01-26T12:20:37;101963.59;;;1.00;100.00
13476;BME280;6810;63.824;20.288;2023-01-26T12:26:34;101967.09;;;1.00;100.00
13476;BME280;6810;63.824;20.288;2023-01-26T12:29:32;101959.22;;;0.94;100.00
13476;BME280;6810;63.824;20.288;2023-01-26T12:32:21;101971.47;;;1.01;100.00
13476;BME280;6810;63.824;20.288;2023-01-26T12:35:12;101969.72;;;1.00;100.00
13476;BME280;6810;63.824;20.288;2023-01-26T12:38:08;101978.47;;;1.01;100.00
13476;BME280;6810;63.824;20.288;2023-01-26T12:53:15;101992.47;;;1.03;100.00
13476;BME280;6810;63.824;20.288;2023-01-26T12:56:20;101993.34;;;0.97;100.00
13476;BME280;6810;63.824;20.288;2023-01-26T12:59:20;102008.22;;;1.03;100.00
13476;BME280;6810;63.824;20.288;2023-01-26T13:02:19;102023.97;;;1.03;100.00
13476;BME280;6810;63.824;20.288;2023-01-26T13:05:23;102025.72;;;1.02;100.00
13476;BME280;6810;63.824;20.288;2023-01-26T13:11:50;101998.59;;;0.90;100.00
13476;BME280;6810;63.824;20.288;2023-01-26T13:17:54;102031.84;;;1.03;100.00
13476;BME280;6810;63.824;20.288;2023-01-26T13:20:46;102030.97;;;1.04;100.00
13476;BME280;6810;63.824;20.288;2023-01-26T13:29:27;102020.44;;;0.95;100.00
13476;BME280;6810;63.824;20.288;2023-01-26T13:35:08;102041.47;;;1.02;100.00
13476;BME280;6810;63.824;20.288;2023-01-26T13:40:49;102030.94;;;0.90;100.00
13476;BME280;6810;63.824;20.288;2023-01-26T13:43:41;102028.31;;;0.92;100.00
13476;BME280;6810;63.824;20.288;2023-01-26T13:46:35;102033.56;;;0.90;100.00
13476;BME280;6810;63.824;20.288;2023-01-26T13:49:37;102052.84;;;1.01;100.00
13476;BME280;6810;63.824;20.288;2023-01-26T13:52:26;102058.97;;;1.02;100.00
13476;BME280;6810;63.824;20.288;2023-01-26T13:55:23;102039.69;;;0.91;100.00
13476;BME280;6810;63.824;20.288;2023-01-26T13:58:17;102069.47;;;1.00;100.00
13476;BME280;6810;63.824;20.288;2023-01-26T14:01:06;102074.72;;;1.02;100.00
13476;BME280;6810;63.824;20.288;2023-01-26T14:04:02;102072.06;;;0.93;100.00
13476;BME280;6810;63.824;20.288;2023-01-26T14:07:07;102085.22;;;0.97;100.00
13476;BME280;6810;63.824;20.288;2023-01-26T14:09:57;102088.72;;;0.99;100.00
13476;BME280;6810;63.824;20.288;2023-01-26T14:12:47;102074.69;;;0.93;100.00
13476;BME280;6810;63.824;20.288;2023-01-26T14:15:34;102090.47;;;0.99;100.00
13476;BME280;6810;63.824;20.288;2023-01-26T14:18:21;102037.91;;;0.69;100.00
13476;BME280;6810;63.824;20.288;2023-01-26T14:21:21;102093.97;;;0.96;100.00
13476;BME280;6810;63.824;20.288;2023-01-26T14:24:08;102063.28;;;0.76;100.00
13476;BME280;6810;63.824;20.288;2023-01-26T14:26:56;102055.38;;;0.68;100.00
13476;BME280;6810;63.824;20.288;2023-01-26T14:29:43;102100.94;;;0.94;100.00
13476;BME280;6810;63.824;20.288;2023-01-26T14:32:30;102104.41;;;0.93;100.00
13476;BME280;6810;63.824;20.288;2023-01-26T14:35:19;102107.03;;;0.92;100.00
13476;BME280;6810;63.824;20.288;2023-01-26T14:38:13;102106.16;;;0.87;100.00
13476;BME280;6810;63.824;20.288;2023-01-26T14:41:00;102123.66;;;0.89;100.00
13476;BME280;6810;63.824;20.288;2023-01-26T14:43:48;102112.25;;;0.80;100.00
13476;BME280;6810;63.824;20.288;2023-01-26T14:46:54;102135.03;;;0.88;100.00
13476;BME280;6810;63.824;20.288;2023-01-26T14:52:51;102145.53;;;0.87;100.00
13476;BME280;6810;63.824;20.288;2023-01-26T14:55:43;102141.13;;;0.84;100.00
13476;BME280;6810;63.824;20.288;2023-01-26T14:58:31;102099.06;;;0.59;100.00
13476;BME280;6810;63.824;20.288;2023-01-26T15:01:24;102114.81;;;0.62;100.00
13476;BME280;6810;63.824;20.288;2023-01-26T15:04:35;102167.38;;;0.84;100.00
13476;BME280;6810;63.824;20.288;2023-01-26T15:07:31;102163.00;;;0.83;100.00
13476;BME280;6810;63.824;20.288;2023-01-26T15:16:09;102181.38;;;0.80;100.00
13476;BME280;6810;63.824;20.288;2023-01-26T15:19:04;102168.22;;;0.79;100.00
13476;BME280;6810;63.824;20.288;2023-01-26T15:21:54;102182.25;;;0.78;100.00
13476;BME280;6810;63.824;20.288;2023-01-26T15:24:41;102200.59;;;0.76;100.00
13476;BME280;6810;63.824;20.288;2023-01-26T15:27:33;102205.84;;;0.76;100.00
13476;BME280;6810;63.824;20.288;2023-01-26T15:30:27;102205.84;;;0.75;100.00
13476;BME280;6810;63.824;20.288;2023-01-26T15:33:49;102204.94;;;0.73;100.00
13476;BME280;6810;63.824;20.288;2023-01-26T15:36:48;102215.44;;;0.73;100.00
13476;BME280;6810;63.824;20.288;2023-01-26T15:39:35;102211.91;;;0.71;100.00
13476;BME280;6810;63.824;20.288;2023-01-26T15:42:24;102217.16;;;0.71;100.00
13476;BME280;6810;63.824;20.288;2023-01-26T15:45:22;102225.88;;;0.64;100.00
13476;BME280;6810;63.824;20.288;2023-01-26T15:48:09;102231.16;;;0.68;100.00
13476;BME280;6810;63.824;20.288;2023-01-26T15:50:56;102226.78;;;0.64;100.00
13476;BME280;6810;63.824;20.288;2023-01-26T15:53:43;102219.69;;;0.56;100.00
13476;BME280;6810;63.824;20.288;2023-01-26T15:56:31;102232.03;;;0.66;100.00
13476;BME280;6810;63.824;20.288;2023-01-26T15:59:18;102238.13;;;0.65;100.00
13476;BME280;6810;63.824;20.288;2023-01-26T16:02:18;102236.38;;;0.64;100.00
13476;BME280;6810;63.824;20.288;2023-01-26T16:05:11;102238.94;;;0.55;100.00
13476;BME280;6810;63.824;20.288;2023-01-26T16:07:59;102248.56;;;0.59;100.00
13476;BME280;6810;63.824;20.288;2023-01-26T16:10:46;102226.56;;;0.40;100.00
13476;BME280;6810;63.824;20.288;2023-01-26T16:13:33;102265.22;;;0.61;100.00
13476;BME280;6810;63.824;20.288;2023-01-26T16:16:30;102265.22;;;0.61;100.00
13476;BME280;6810;63.824;20.288;2023-01-26T16:19:17;102261.69;;;0.60;100.00
13476;BME280;6810;63.824;20.288;2023-01-26T16:22:04;102257.31;;;0.56;100.00
13476;BME280;6810;63.824;20.288;2023-01-26T16:24:51;102267.81;;;0.58;100.00
13476;BME280;6810;63.824;20.288;2023-01-26T16:27:38;102261.66;;;0.54;100.00
13476;BME280;6810;63.824;20.288;2023-01-26T16:30:25;102266.88;;;0.50;100.00
13476;BME280;6810;63.824;20.288;2023-01-26T16:33:15;102279.16;;;0.57;100.00
13476;BME280;6810;63.824;20.288;2023-01-26T16:36:03;102267.78;;;0.52;100.00
13476;BME280;6810;63.824;20.288;2023-01-26T16:38:50;102287.88;;;0.54;100.00
13476;BME280;6810;63.824;20.288;2023-01-26T16:41:38;102277.38;;;0.50;100.00
13476;BME280;6810;63.824;20.288;2023-01-26T16:44:25;102288.75;;;0.53;100.00
13476;BME280;6810;63.824;20.288;2023-01-26T16:47:12;102288.75;;;0.53;100.00
13476;BME280;6810;63.824;20.288;2023-01-26T16:49:59;102266.81;;;0.44;100.00
13476;BME280;6810;63.824;20.288;2023-01-26T16:52:46;102264.16;;;0.36;100.00
13476;BME280;6810;63.824;20.288;2023-01-26T16:55:33;102289.56;;;0.48;100.00
13476;BME280;6810;63.824;20.288;2023-01-26T16:58:21;102305.28;;;0.46;100.00
13476;BME280;6810;63.824;20.288;2023-01-26T17:01:16;102308.78;;;0.45;100.00
13476;BME280;6810;63.824;20.288;2023-01-26T17:04:04;102309.69;;;0.44;100.00
13476;BME280;6810;63.824;20.288;2023-01-26T17:06:51;102306.13;;;0.41;100.00
13476;BME280;6810;63.824;20.288;2023-01-26T17:09:38;102321.00;;;0.43;100.00
13476;BME280;6810;63.824;20.288;2023-01-26T17:12:25;102328.03;;;0.43;100.00
13476;BME280;6810;63.824;20.288;2023-01-26T17:15:12;102323.63;;;0.42;100.00
13476;BME280;6810;63.824;20.288;2023-01-26T17:17:59;102344.59;;;0.42;100.00
13476;BME280;6810;63.824;20.288;2023-01-26T17:20:46;102342.84;;;0.39;100.00
13476;BME280;6810;63.824;20.288;2023-01-26T17:23:34;102347.22;;;0.40;100.00
13476;BME280;6810;63.824;20.288;2023-01-26T17:26:21;102354.22;;;0.40;100.00
13476;BME280;6810;63.824;20.288;2023-01-26T17:29:09;102355.06;;;0.39;100.00
13476;BME280;6810;63.824;20.288;2023-01-26T17:31:56;102342.72;;;0.26;100.00
13476;BME280;6810;63.824;20.288;2023-01-26T17:34:44;102378.66;;;0.37;100.00
13476;BME280;6810;63.824;20.288;2023-01-26T17:37:30;102380.41;;;0.37;100.00
13476;BME280;6810;63.824;20.288;2023-01-26T17:40:17;102385.63;;;0.34;100.00
13476;BME280;6810;63.824;20.288;2023-01-26T17:43:04;102389.97;;;0.33;100.00
13476;BME280;6810;63.824;20.288;2023-01-26T17:46:00;102396.13;;;0.34;100.00
13476;BME280;6810;63.824;20.288;2023-01-26T17:48:48;102388.25;;;0.34;100.00
13476;BME280;6810;63.824;20.288;2023-01-26T17:51:35;102394.34;;;0.33;100.00
13476;BME280;6810;63.824;20.288;2023-01-26T17:54:22;102346.88;;;0.04;100.00
13476;BME280;6810;63.824;20.288;2023-01-26T17:57:10;102379.34;;;0.17;100.00
13476;BME280;6810;63.824;20.288;2023-01-26T17:59:57;102412.66;;;0.28;100.00
13476;BME280;6810;63.824;20.288;2023-01-26T18:02:44;102415.25;;;0.27;100.00
13476;BME280;6810;63.824;20.288;2023-01-26T18:05:31;102428.41;;;0.30;100.00
13476;BME280;6810;63.824;20.288;2023-01-26T18:08:18;102398.47;;;0.10;100.00
13476;BME280;6810;63.824;20.288;2023-01-26T18:11:08;102424.00;;;0.27;100.00
13476;BME280;6810;63.824;20.288;2023-01-26T18:13:56;102422.22;;;0.26;100.00
13476;BME280;6810;63.824;20.288;2023-01-26T18:16:43;102430.97;;;0.25;100.00
13476;BME280;6810;63.824;20.288;2023-01-26T18:19:30;102430.06;;;0.25;100.00
13476;BME280;6810;63.824;20.288;2023-01-26T18:22:17;102413.38;;;0.14;100.00
13476;BME280;6810;63.824;20.288;2023-01-26T18:25:04;102423.94;;;0.20;100.00
13476;BME280;6810;63.824;20.288;2023-01-26T18:27:51;102427.41;;;0.20;100.00
13476;BME280;6810;63.824;20.288;2023-01-26T18:30:39;102426.56;;;0.20;100.00
13476;BME280;6810;63.824;20.288;2023-01-26T18:33:26;102437.84;;;0.17;100.00
13476;BME280;6810;63.824;20.288;2023-01-26T18:36:15;102436.13;;;0.16;100.00
13476;BME280;6810;63.824;20.288;2023-01-26T18:39:05;102422.09;;;0.14;100.00
13476;BME280;6810;63.824;20.288;2023-01-26T18:41:53;102427.31;;;0.11;100.00
13476;BME280;6810;63.824;20.288;2023-01-26T18:44:40;102442.19;;;0.11;100.00
13476;BME280;6810;63.824;20.288;2023-01-26T18:47:29;102452.63;;;0.09;100.00
13476;BME280;6810;63.824;20.288;2023-01-26T18:50:16;102449.09;;;0.06;100.00
13476;BME280;6810;63.824;20.288;2023-01-26T18:53:04;102438.56;;;0.03;100.00
13476;BME280;6810;63.824;20.288;2023-01-26T18:56:10;102439.44;;;0.02;100.00
13476;BME280;6810;63.824;20.288;2023-01-26T18:58:57;102405.06;;;-0.23;100.00
13476;BME280;6810;63.824;20.288;2023-01-26T19:01:44;102451.59;;;-0.04;100.00
13476;BME280;6810;63.824;20.288;2023-01-26T19:04:32;102445.44;;;-0.07;100.00
13476;BME280;6810;63.824;20.288;2023-01-26T19:07:19;102451.53;;;-0.08;100.00
13476;BME280;6810;63.824;20.288;2023-01-26T19:10:06;102450.59;;;-0.13;100.00
13476;BME280;6810;63.824;20.288;2023-01-26T19:12:53;102452.34;;;-0.14;100.00
13476;BME280;6810;63.824;20.288;2023-01-26T19:15:46;102448.75;;;-0.22;100.00
13476;BME280;6810;63.824;20.288;2023-01-26T19:18:34;102472.34;;;-0.20;100.00
13476;BME280;6810;63.824;20.288;2023-01-26T19:21:23;102473.16;;;-0.23;100.00
13476;BME280;6810;63.824;20.288;2023-01-26T19:24:10;102466.13;;;-0.27;100.00
13476;BME280;6810;63.824;20.288;2023-01-26T19:26:57;102459.13;;;-0.29;100.00
13476;BME280;6810;63.824;20.288;2023-01-26T19:29:44;102471.28;;;-0.33;100.00
13476;BME280;6810;63.824;20.288;2023-01-26T19:32:31;102469.38;;;-0.43;100.00
13476;BME280;6810;63.824;20.288;2023-01-26T19:35:18;102479.06;;;-0.39;100.00
13476;BME280;6810;63.824;20.288;2023-01-26T19:38:05;102418.25;;;-0.78;100.00
13476;BME280;6810;63.824;20.288;2023-01-26T19:40:52;102482.47;;;-0.44;100.00
13476;BME280;6810;63.824;20.288;2023-01-26T19:43:39;102449.84;;;-0.66;100.00
13476;BME280;6810;63.824;20.288;2023-01-26T19:46:26;102455.13;;;-0.64;100.00
13476;BME280;6810;63.824;20.288;2023-01-26T19:49:14;102486.75;;;-0.51;100.00
13476;BME280;6810;63.824;20.288;2023-01-26T19:52:01;102491.03;;;-0.56;100.00
13476;BME280;6810;63.824;20.288;2023-01-26T19:54:48;102490.13;;;-0.56;100.00
13476;BME280;6810;63.824;20.288;2023-01-26T19:57:34;102498.00;;;-0.56;100.00
13476;BME280;6810;63.824;20.288;2023-01-26T20:00:22;102504.13;;;-0.56;100.00
13476;BME280;6810;63.824;20.288;2023-01-26T20:03:09;102469.75;;;-0.78;100.00
13476;BME280;6810;63.824;20.288;2023-01-26T20:05:56;102507.59;;;-0.57;100.00
13476;BME280;6810;63.824;20.288;2023-01-26T20:08:43;102505.72;;;-0.64;100.00
13476;BME280;6810;63.824;20.288;2023-01-26T20:11:31;102481.91;;;-0.80;100.00
13476;BME280;6810;63.824;20.288;2023-01-26T20:14:18;102524.97;;;-0.62;100.00